Anshan Air Base


Codes: ZYAS/AOG
Name: Anshan Air Base
City: Anshan
Country: China
Elevation: 0 ft.

Photos at Anshan Air Base


   Photos courtesy of SpottingLog. You can add your own sightings and photos by signing up for a free trial today.



No photos found.

Weather at Anshan Air Base


Time (UTC)DescriptionTempratureWindCloud coverageVisibilityPressureHumidity
18-Apr-2024 00:00Few Clouds13°C7 mph, SW20%10000m1010hPa40%
18-Apr-2024 03:00Broken Clouds17°C11 mph, N70%10000m1010hPa38%
18-Apr-2024 06:00Overcast Clouds23°C11 mph, N87%10000m1010hPa33%
18-Apr-2024 09:00Broken Clouds22°C9 mph, NE69%10000m1009hPa29%
18-Apr-2024 12:00Scattered Clouds17°C9 mph, N39%10000m1011hPa38%
18-Apr-2024 15:00Few Clouds15°C7 mph, NE17%10000m1012hPa40%
18-Apr-2024 18:00Few Clouds13°C9 mph, N22%10000m1013hPa47%
18-Apr-2024 21:00Overcast Clouds14°C13 mph, NE92%10000m1013hPa34%
19-Apr-2024 00:00Overcast Clouds15°C11 mph, N96%10000m1014hPa34%
19-Apr-2024 03:00Overcast Clouds17°C18 mph, NE100%10000m1015hPa30%
19-Apr-2024 06:00Overcast Clouds17°C13 mph, NE100%10000m1013hPa41%
19-Apr-2024 09:00Overcast Clouds17°C7 mph, NE100%10000m1012hPa40%
19-Apr-2024 12:00Overcast Clouds15°C7 mph, N100%10000m1013hPa45%
19-Apr-2024 15:00Overcast Clouds14°C7 mph, NE100%10000m1012hPa43%
19-Apr-2024 18:00Overcast Clouds13°C7 mph, NE100%10000m1011hPa53%
19-Apr-2024 21:00Overcast Clouds12°C7 mph, NE100%10000m1010hPa59%
20-Apr-2024 00:00Overcast Clouds16°C4 mph, NE100%10000m1010hPa52%
20-Apr-2024 03:00Light Rain19°C7 mph, SW100%10000m1009hPa45%
20-Apr-2024 06:00Light Rain19°C7 mph, SW100%10000m1008hPa40%
20-Apr-2024 09:00Overcast Clouds17°C7 mph, SW100%10000m1009hPa46%
20-Apr-2024 12:00Overcast Clouds14°C13 mph, SW100%10000m1010hPa54%
20-Apr-2024 15:00Scattered Clouds12°C7 mph, SW30%10000m1011hPa68%
20-Apr-2024 18:00Few Clouds11°C9 mph, SW15%10000m1011hPa75%
20-Apr-2024 21:00Clear Sky10°C9 mph, S0%10000m1012hPa76%
21-Apr-2024 00:00Clear Sky15°C13 mph, SW0%10000m1012hPa53%
21-Apr-2024 03:00Clear Sky20°C16 mph, SW0%10000m1012hPa38%
21-Apr-2024 06:00Clear Sky22°C16 mph, SW0%10000m1010hPa32%
21-Apr-2024 09:00Clear Sky21°C16 mph, SW0%10000m1010hPa35%
21-Apr-2024 12:00Clear Sky16°C11 mph, SW0%10000m1011hPa49%
21-Apr-2024 15:00Clear Sky14°C9 mph, SW0%10000m1012hPa55%
21-Apr-2024 18:00Clear Sky13°C7 mph, S0%10000m1011hPa59%
21-Apr-2024 21:00Clear Sky12°C4 mph, S0%10000m1012hPa61%
22-Apr-2024 00:00Clear Sky19°C9 mph, S0%10000m1013hPa39%
22-Apr-2024 03:00Clear Sky24°C11 mph, SW0%10000m1012hPa22%
22-Apr-2024 06:00Clear Sky26°C13 mph, SW0%10000m1010hPa20%
22-Apr-2024 09:00Few Clouds22°C13 mph, SW21%10000m1010hPa32%
22-Apr-2024 12:00Broken Clouds18°C4 mph, S58%10000m1010hPa47%
22-Apr-2024 15:00Overcast Clouds16°C7 mph, S100%10000m1011hPa49%
22-Apr-2024 18:00Overcast Clouds15°C9 mph, S100%10000m1008hPa55%
22-Apr-2024 21:00Overcast Clouds15°C11 mph, S100%10000m1008hPa56%